createdAt,value
2019-03-19T00:00:41.384Z,4.18
2019-03-19T00:03:11.190Z,4.08
2019-03-19T00:05:40.628Z,4.05
2019-03-19T00:08:10.100Z,4.08
2019-03-19T00:10:40.667Z,4.06
2019-03-19T00:13:10.399Z,3.93
2019-03-19T00:15:39.881Z,3.87
2019-03-19T00:18:09.380Z,3.81
2019-03-19T00:21:00.142Z,3.86
2019-03-19T00:23:29.583Z,3.94
2019-03-19T00:25:59.176Z,3.86
2019-03-19T00:28:28.793Z,3.91
2019-03-19T00:30:59.158Z,3.89
2019-03-19T00:33:28.570Z,3.92
2019-03-19T00:35:58.095Z,3.87
2019-03-19T00:38:27.475Z,3.84
2019-03-19T00:40:57.191Z,3.76
2019-03-19T00:43:26.515Z,3.71
2019-03-19T00:45:56.004Z,3.70
2019-03-19T00:48:25.855Z,3.69
2019-03-19T00:50:55.669Z,3.64
2019-03-19T00:53:25.049Z,3.60
2019-03-19T00:55:54.947Z,3.61
2019-03-19T00:58:24.810Z,3.63
2019-03-19T01:00:54.336Z,3.64
2019-03-19T01:03:23.790Z,3.65
2019-03-19T01:05:54.039Z,3.66
2019-03-19T01:08:23.580Z,3.68
2019-03-19T01:10:53.083Z,3.65
2019-03-19T01:13:22.589Z,3.72
2019-03-19T01:15:52.068Z,3.73
2019-03-19T01:18:21.795Z,3.67
2019-03-19T01:20:52.024Z,3.67
2019-03-19T01:23:21.460Z,3.56
2019-03-19T01:25:55.634Z,3.51
2019-03-19T01:28:22.910Z,3.37
2019-03-19T01:30:53.523Z,3.28
2019-03-19T01:33:23.407Z,3.26
2019-03-19T01:35:53.863Z,3.19
2019-03-19T01:38:23.359Z,3.11
2019-03-19T01:40:53.141Z,3.11
2019-03-19T01:43:22.566Z,3.01
2019-03-19T01:45:52.458Z,2.91
2019-03-19T01:48:22.292Z,2.84
2019-03-19T01:50:54.382Z,2.83
2019-03-19T01:53:24.287Z,2.79
2019-03-19T01:56:04.845Z,2.76
2019-03-19T01:58:25.917Z,2.70
2019-03-19T02:00:55.418Z,2.74
2019-03-19T02:03:25.310Z,2.73
2019-03-19T02:05:56.010Z,2.71
2019-03-19T02:08:26.435Z,2.69
2019-03-19T02:10:56.129Z,2.71
2019-03-19T02:13:25.764Z,2.72
2019-03-19T02:15:55.137Z,2.65
2019-03-19T02:18:25.142Z,2.67
2019-03-19T02:20:54.857Z,2.65
2019-03-19T02:23:24.388Z,2.65
2019-03-19T02:25:54.883Z,2.63
2019-03-19T02:28:24.409Z,2.59
2019-03-19T02:30:55.562Z,2.62
2019-03-19T02:33:25.053Z,2.57
2019-03-19T02:35:56.091Z,2.53
2019-03-19T02:38:25.483Z,2.53
2019-03-19T02:40:54.957Z,2.50
2019-03-19T02:43:24.387Z,2.44
2019-03-19T02:45:54.683Z,2.42
2019-03-19T02:48:24.521Z,2.43
2019-03-19T02:50:54.672Z,2.37
2019-03-19T02:53:24.321Z,2.36
2019-03-19T02:55:54.002Z,2.31
2019-03-19T02:58:23.421Z,2.23
2019-03-19T03:00:53.805Z,2.24
2019-03-19T03:03:24.741Z,2.19
2019-03-19T03:05:55.387Z,2.21
2019-03-19T03:08:25.764Z,2.18
2019-03-19T03:10:57.665Z,2.12
2019-03-19T03:13:27.100Z,2.15
2019-03-19T03:15:57.594Z,2.15
2019-03-19T03:18:27.077Z,2.13
2019-03-19T03:20:56.527Z,2.09
2019-03-19T03:23:25.997Z,2.15
2019-03-19T03:25:56.451Z,2.13
2019-03-19T03:28:26.355Z,2.11
2019-03-19T03:30:57.794Z,2.12
2019-03-19T03:33:27.283Z,2.08
2019-03-19T03:35:56.796Z,2.08
2019-03-19T03:38:26.484Z,2.06
2019-03-19T03:40:56.079Z,2.03
2019-03-19T03:43:25.965Z,2.02
2019-03-19T03:45:55.399Z,1.95
2019-03-19T03:48:24.874Z,2.01
2019-03-19T03:50:55.462Z,2.02
2019-03-19T03:53:25.653Z,1.99
2019-03-19T03:55:55.351Z,2.02
2019-03-19T03:58:25.075Z,2.20
2019-03-19T04:00:55.262Z,2.17
2019-03-19T04:03:25.487Z,2.22
2019-03-19T04:05:55.443Z,2.22
2019-03-19T04:08:25.916Z,2.30
2019-03-19T04:10:55.448Z,2.39
2019-03-19T04:13:25.127Z,2.44
2019-03-19T04:15:54.870Z,2.49
2019-03-19T04:18:24.398Z,2.59
2019-03-19T04:20:55.403Z,2.59
2019-03-19T04:23:25.300Z,2.71
2019-03-19T04:25:55.120Z,2.77
2019-03-19T04:28:24.561Z,2.76
2019-03-19T04:30:54.516Z,2.86
2019-03-19T04:33:24.184Z,2.80
2019-03-19T04:35:54.685Z,2.93
2019-03-19T04:38:24.065Z,2.98
2019-03-19T04:40:55.237Z,2.96
2019-03-19T04:43:24.737Z,3.00
2019-03-19T04:45:55.480Z,2.96
2019-03-19T04:48:24.994Z,2.89
2019-03-19T04:50:55.188Z,2.91
2019-03-19T04:53:25.905Z,2.95
2019-03-19T04:55:55.479Z,3.02
2019-03-19T04:58:25.319Z,2.92
2019-03-19T05:00:55.149Z,2.95
2019-03-19T05:03:24.592Z,2.99
2019-03-19T05:05:56.559Z,3.07
2019-03-19T05:08:26.036Z,3.20
2019-03-19T05:10:57.869Z,3.23
2019-03-19T05:13:28.638Z,3.13
2019-03-19T05:15:58.467Z,3.22
2019-03-19T05:18:27.997Z,3.18
2019-03-19T05:20:58.880Z,3.29
2019-03-19T05:23:28.281Z,3.30
2019-03-19T05:25:57.719Z,3.32
2019-03-19T05:28:27.178Z,3.41
2019-03-19T05:30:59.193Z,3.50
2019-03-19T05:33:28.706Z,3.44
2019-03-19T05:36:00.328Z,3.44
2019-03-19T05:38:31.373Z,3.37
2019-03-19T05:41:01.062Z,3.27
2019-03-19T05:43:30.593Z,3.24
2019-03-19T05:46:00.183Z,3.29
2019-03-19T05:48:29.687Z,3.33
2019-03-19T05:50:59.158Z,3.29
2019-03-19T05:53:29.088Z,3.15
2019-03-19T05:55:59.295Z,3.23
2019-03-19T05:58:29.376Z,3.25
2019-03-19T06:01:00.519Z,3.28
2019-03-19T06:03:30.055Z,3.36
2019-03-19T06:06:00.141Z,3.42
2019-03-19T06:08:31.652Z,3.38
2019-03-19T06:11:02.338Z,3.43
2019-03-19T06:13:31.769Z,3.55
2019-03-19T06:16:01.997Z,3.55
2019-03-19T06:18:35.784Z,3.62
2019-03-19T06:21:07.819Z,3.85
2019-03-19T06:23:37.284Z,4.01
2019-03-19T06:26:07.853Z,4.41
2019-03-19T06:28:39.351Z,4.49
2019-03-19T06:31:08.757Z,4.54
2019-03-19T06:33:38.831Z,4.37
2019-03-19T06:36:08.177Z,4.75
2019-03-19T06:38:38.257Z,4.59
2019-03-19T06:41:08.720Z,4.60
2019-03-19T06:43:38.503Z,4.72
2019-03-19T06:46:08.290Z,4.82
2019-03-19T06:48:47.855Z,4.80
2019-03-19T06:51:30.203Z,4.67
2019-03-19T06:54:01.324Z,4.65
2019-03-19T06:56:31.983Z,4.79
2019-03-19T06:59:02.613Z,4.83
2019-03-19T07:01:33.181Z,5.10
2019-03-19T07:04:02.598Z,5.38
2019-03-19T07:06:31.929Z,5.67
2019-03-19T07:09:01.868Z,7.33
2019-03-19T07:11:31.408Z,8.12
2019-03-19T07:14:00.784Z,8.23
2019-03-19T07:16:30.300Z,7.96
2019-03-19T07:19:00.076Z,7.43
2019-03-19T07:21:29.571Z,6.94
2019-03-19T07:23:59.369Z,6.76
2019-03-19T07:26:29.472Z,6.42
2019-03-19T07:29:00.172Z,6.35
2019-03-19T07:31:31.226Z,6.73
2019-03-19T07:34:01.274Z,6.69
2019-03-19T07:36:30.643Z,6.60
2019-03-19T07:39:00.527Z,7.63
2019-03-19T07:41:32.886Z,9.66
2019-03-19T07:44:06.227Z,10.91
2019-03-19T07:46:35.737Z,11.13
2019-03-19T07:49:05.344Z,9.94
2019-03-19T07:51:34.851Z,8.17
2019-03-19T07:54:04.630Z,7.84
2019-03-19T07:56:34.524Z,7.39
2019-03-19T07:59:04.321Z,7.55
2019-03-19T08:01:37.824Z,7.93
2019-03-19T08:04:07.184Z,8.84
2019-03-19T08:06:37.678Z,9.50
2019-03-19T08:09:08.339Z,10.42
2019-03-19T08:11:37.912Z,10.75
2019-03-19T08:14:08.121Z,10.87
2019-03-19T08:16:37.676Z,10.33
2019-03-19T08:19:07.114Z,10.30
2019-03-19T08:21:37.076Z,10.21
2019-03-19T08:24:06.517Z,10.50
2019-03-19T08:26:39.212Z,10.70
2019-03-19T08:29:08.652Z,11.07
2019-03-19T08:31:39.136Z,10.96
2019-03-19T08:34:11.873Z,9.65
2019-03-19T08:36:43.334Z,9.33
2019-03-19T08:39:13.195Z,8.93
2019-03-19T08:41:42.861Z,9.31
2019-03-19T08:44:13.008Z,10.47
2019-03-19T08:46:42.781Z,9.94
2019-03-19T08:49:12.916Z,9.82
2019-03-19T08:51:42.617Z,10.32
2019-03-19T08:54:14.872Z,9.69
2019-03-19T08:56:45.131Z,9.28
2019-03-19T08:59:15.246Z,8.42
2019-03-19T09:01:44.759Z,7.81
2019-03-19T09:04:15.301Z,7.24
2019-03-19T09:06:44.760Z,6.22
2019-03-19T09:09:14.358Z,5.45
2019-03-19T09:11:43.811Z,4.86
2019-03-19T09:14:13.727Z,4.99
2019-03-19T09:16:43.232Z,4.60
2019-03-19T09:19:17.200Z,4.56
2019-03-19T09:21:46.851Z,4.60
2019-03-19T09:24:16.717Z,4.62
2019-03-19T09:26:53.234Z,4.36
2019-03-19T09:29:22.774Z,4.07
2019-03-19T09:31:55.167Z,4.14
2019-03-19T09:34:25.130Z,3.89
2019-03-19T09:36:57.844Z,3.86
2019-03-19T09:39:28.374Z,3.72
2019-03-19T09:41:59.856Z,3.61
2019-03-19T09:44:29.280Z,3.78
2019-03-19T09:46:58.944Z,4.18
2019-03-19T09:49:28.350Z,4.28
2019-03-19T09:52:01.802Z,4.89
2019-03-19T09:54:32.256Z,4.93
2019-03-19T09:57:01.886Z,5.25
2019-03-19T09:59:32.334Z,5.65
2019-03-19T10:02:02.125Z,5.63
2019-03-19T10:04:33.340Z,5.90
2019-03-19T10:07:06.635Z,6.64
2019-03-19T10:09:36.218Z,7.82
2019-03-19T10:12:06.276Z,9.37
2019-03-19T10:14:36.770Z,9.71
2019-03-19T10:17:06.407Z,9.75
2019-03-19T10:19:37.633Z,10.34
2019-03-19T10:22:07.799Z,10.38
2019-03-19T10:24:37.663Z,10.88
2019-03-19T10:27:08.222Z,11.41
2019-03-19T10:29:38.955Z,11.72
2019-03-19T10:32:08.868Z,12.40
2019-03-19T10:34:38.272Z,10.76
2019-03-19T10:37:08.394Z,11.12
2019-03-19T10:39:39.048Z,11.81
2019-03-19T10:42:08.623Z,11.30
2019-03-19T10:44:39.811Z,10.50
2019-03-19T10:47:10.251Z,10.72
2019-03-19T10:49:40.487Z,11.02
2019-03-19T10:52:12.448Z,10.85
2019-03-19T10:54:42.085Z,11.37
2019-03-19T10:57:11.468Z,11.69
2019-03-19T10:59:48.830Z,11.52
2019-03-19T11:02:12.862Z,11.81
2019-03-19T11:04:42.552Z,11.54
2019-03-19T11:07:11.939Z,11.47
2019-03-19T11:09:41.870Z,12.00
2019-03-19T11:12:13.278Z,12.21
2019-03-19T11:14:42.885Z,12.15
2019-03-19T11:17:14.546Z,11.17
2019-03-19T11:19:44.294Z,10.49
2019-03-19T11:22:13.712Z,10.26
2019-03-19T11:24:43.429Z,10.60
2019-03-19T11:27:15.364Z,9.41
2019-03-19T11:29:45.662Z,8.83
2019-03-19T11:32:16.531Z,8.64
2019-03-19T11:34:46.381Z,8.39
2019-03-19T11:37:16.031Z,8.11
2019-03-19T11:39:45.477Z,8.12
2019-03-19T11:42:18.738Z,8.00
2019-03-19T11:44:48.193Z,7.84
2019-03-19T11:47:20.475Z,7.92
2019-03-19T11:49:50.001Z,6.76
2019-03-19T11:52:22.620Z,5.99
2019-03-19T11:54:53.855Z,5.43
2019-03-19T11:57:23.740Z,5.14
2019-03-19T11:59:55.433Z,4.89
2019-03-19T12:02:26.358Z,5.00
2019-03-19T12:04:56.546Z,5.08
2019-03-19T12:07:26.030Z,5.40
2019-03-19T12:09:58.977Z,5.92
2019-03-19T12:12:29.054Z,6.13
2019-03-19T12:14:59.877Z,6.38
2019-03-19T12:17:29.327Z,6.83
2019-03-19T12:20:06.261Z,7.08
2019-03-19T12:22:37.083Z,7.11
2019-03-19T12:25:08.435Z,7.26
2019-03-19T12:27:39.473Z,7.12
2019-03-19T12:30:21.746Z,6.85
2019-03-19T12:32:47.273Z,7.19
2019-03-19T12:35:20.292Z,7.57
2019-03-19T12:37:49.899Z,8.57
2019-03-19T12:40:20.097Z,8.36
2019-03-19T12:42:49.734Z,9.07
2019-03-19T12:45:19.335Z,10.06
2019-03-19T12:47:49.912Z,10.38
2019-03-19T12:50:20.237Z,10.87
2019-03-19T12:52:58.865Z,11.37
2019-03-19T12:55:38.123Z,10.49
2019-03-19T12:58:07.752Z,9.45
2019-03-19T13:00:37.520Z,9.41
2019-03-19T13:03:07.591Z,9.06
2019-03-19T13:05:37.164Z,8.24
2019-03-19T13:08:07.532Z,7.91
2019-03-19T13:10:37.036Z,7.31
2019-03-19T13:13:08.652Z,7.29
2019-03-19T13:15:40.657Z,6.99
2019-03-19T13:18:10.187Z,7.09
2019-03-19T13:20:39.582Z,7.40
2019-03-19T13:23:08.985Z,8.03
2019-03-19T13:25:38.601Z,8.35
2019-03-19T13:28:08.275Z,8.50
2019-03-19T13:30:45.080Z,8.73
2019-03-19T13:33:09.301Z,9.00
2019-03-19T13:35:38.813Z,9.13
2019-03-19T13:38:08.255Z,9.74
2019-03-19T13:40:38.041Z,9.65
2019-03-19T13:43:07.514Z,9.50
2019-03-19T13:45:37.489Z,9.24
2019-03-19T13:48:08.163Z,9.35
2019-03-19T13:50:37.499Z,8.97
2019-03-19T13:53:07.034Z,8.82
2019-03-19T13:55:37.475Z,8.86
2019-03-19T13:58:06.938Z,8.64
2019-03-19T14:00:36.403Z,8.42
2019-03-19T14:03:06.284Z,8.33
2019-03-19T14:05:35.949Z,8.73
2019-03-19T14:08:06.239Z,8.70
2019-03-19T14:10:35.689Z,8.84
2019-03-19T14:13:05.330Z,8.50
2019-03-19T14:15:34.972Z,8.51
2019-03-19T14:18:07.847Z,8.33
2019-03-19T14:20:37.350Z,8.53
2019-03-19T14:23:06.934Z,8.38
2019-03-19T14:25:36.968Z,8.73
2019-03-19T14:28:08.398Z,8.78
2019-03-19T14:30:38.699Z,8.70
2019-03-19T14:33:13.454Z,9.05
2019-03-19T14:35:44.025Z,9.04
2019-03-19T14:38:15.372Z,8.74
2019-03-19T14:40:53.114Z,8.60
2019-03-19T14:43:22.875Z,8.60
2019-03-19T14:45:57.361Z,8.58
2019-03-19T14:48:27.553Z,8.27
2019-03-19T14:50:57.620Z,8.44
2019-03-19T14:53:28.470Z,8.45
2019-03-19T14:55:59.896Z,8.58
2019-03-19T14:58:29.514Z,8.45
2019-03-19T15:01:00.777Z,8.49
2019-03-19T15:03:39.547Z,8.41
2019-03-19T15:06:09.517Z,8.39
2019-03-19T15:08:38.896Z,8.11
2019-03-19T15:11:08.348Z,8.17
2019-03-19T15:13:38.042Z,8.22
2019-03-19T15:16:07.528Z,8.28
2019-03-19T15:18:38.116Z,8.09
2019-03-19T15:21:10.333Z,8.02
2019-03-19T15:23:39.856Z,7.67
2019-03-19T15:26:09.490Z,7.39
2019-03-19T15:28:39.372Z,7.16
2019-03-19T15:31:10.739Z,6.86
2019-03-19T15:33:44.285Z,6.73
2019-03-19T15:36:13.966Z,6.80
2019-03-19T15:38:43.571Z,7.05
2019-03-19T15:41:13.886Z,7.14
2019-03-19T15:43:43.337Z,7.36
2019-03-19T15:46:13.181Z,7.47
2019-03-19T15:48:47.736Z,7.49
2019-03-19T15:51:19.099Z,7.54
2019-03-19T15:53:48.528Z,7.58
2019-03-19T15:56:17.905Z,7.46
2019-03-19T15:58:48.884Z,7.35
2019-03-19T16:01:19.587Z,7.28
2019-03-19T16:03:49.072Z,7.23
2019-03-19T16:06:20.379Z,7.16
2019-03-19T16:08:50.155Z,7.17
2019-03-19T16:11:19.823Z,7.15
2019-03-19T16:13:49.607Z,7.20
2019-03-19T16:16:19.388Z,7.35
2019-03-19T16:18:49.165Z,7.45
2019-03-19T16:21:22.012Z,7.55
2019-03-19T16:23:52.610Z,7.63
2019-03-19T16:26:22.604Z,7.57
2019-03-19T16:28:53.079Z,7.52
2019-03-19T16:31:22.579Z,7.51
2019-03-19T16:33:52.547Z,7.48
2019-03-19T16:36:24.917Z,7.45
2019-03-19T16:38:54.493Z,7.43
2019-03-19T16:41:24.047Z,7.44
2019-03-19T16:43:56.394Z,7.45
2019-03-19T16:46:27.074Z,7.47
2019-03-19T16:48:57.056Z,7.45
2019-03-19T16:51:26.811Z,7.48
2019-03-19T16:53:56.352Z,7.56
2019-03-19T16:56:25.780Z,7.48
2019-03-19T16:58:55.184Z,7.51
2019-03-19T17:01:25.850Z,7.47
2019-03-19T17:03:56.543Z,7.39
2019-03-19T17:06:26.001Z,7.28
2019-03-19T17:08:55.839Z,7.17
2019-03-19T17:11:25.444Z,7.11
2019-03-19T17:13:55.842Z,7.03
2019-03-19T17:16:26.127Z,6.98
2019-03-19T17:18:55.852Z,7.00
2019-03-19T17:21:27.829Z,6.95
2019-03-19T17:23:57.272Z,6.91
2019-03-19T17:26:28.311Z,6.83
2019-03-19T17:28:58.519Z,6.82
2019-03-19T17:31:28.367Z,6.86
2019-03-19T17:33:58.960Z,6.80
2019-03-19T17:36:29.114Z,6.82
2019-03-19T17:38:59.353Z,6.81
2019-03-19T17:41:28.889Z,6.84
2019-03-19T17:43:58.358Z,6.85
2019-03-19T17:46:28.081Z,6.86
2019-03-19T17:48:57.543Z,6.87
2019-03-19T17:51:29.155Z,6.83
2019-03-19T17:53:58.598Z,6.78
2019-03-19T17:56:28.064Z,6.77
2019-03-19T17:58:57.570Z,6.69
2019-03-19T18:01:27.918Z,6.60
2019-03-19T18:03:57.879Z,6.57
2019-03-19T18:06:27.518Z,6.63
2019-03-19T18:08:57.299Z,6.59
2019-03-19T18:11:27.090Z,6.57
2019-03-19T18:14:00.273Z,6.59
2019-03-19T18:16:29.850Z,6.61
2019-03-19T18:18:59.353Z,6.63
2019-03-19T18:21:28.815Z,6.62
2019-03-19T18:23:58.345Z,6.59
2019-03-19T18:26:27.901Z,6.59
2019-03-19T18:28:57.555Z,6.58
2019-03-19T18:31:27.852Z,6.62
2019-03-19T18:34:09.871Z,6.65
2019-03-19T18:36:32.068Z,6.70
2019-03-19T18:39:01.736Z,6.73
2019-03-19T18:41:31.216Z,6.73
2019-03-19T18:44:00.593Z,6.80
2019-03-19T18:46:30.018Z,6.83
2019-03-19T18:48:59.439Z,6.83
2019-03-19T18:51:28.837Z,6.89
2019-03-19T18:53:58.281Z,6.84
2019-03-19T18:56:27.661Z,6.85
2019-03-19T18:58:57.001Z,6.89
2019-03-19T19:01:26.835Z,6.78
2019-03-19T19:03:56.338Z,6.84
2019-03-19T19:06:25.774Z,6.77
2019-03-19T19:08:55.881Z,6.78
2019-03-19T19:11:25.355Z,6.68
2019-03-19T19:13:55.819Z,6.65
2019-03-19T19:16:25.977Z,6.63
2019-03-19T19:18:56.119Z,6.61
2019-03-19T19:21:25.655Z,6.55
2019-03-19T19:23:55.096Z,6.51
2019-03-19T19:26:24.620Z,6.44
2019-03-19T19:28:55.342Z,6.44
2019-03-19T19:31:25.664Z,6.39
2019-03-19T19:33:55.363Z,6.27
2019-03-19T19:36:24.833Z,6.16
2019-03-19T19:38:54.566Z,6.09
2019-03-19T19:41:24.005Z,6.09
2019-03-19T19:43:54.570Z,6.08
2019-03-19T19:46:25.089Z,6.06
2019-03-19T19:48:55.300Z,6.03
2019-03-19T19:51:25.598Z,6.02
2019-03-19T19:53:55.591Z,6.09
2019-03-19T19:56:29.239Z,6.17
2019-03-19T19:59:16.388Z,6.23
2019-03-19T20:01:49.224Z,6.28
2019-03-19T20:04:19.608Z,6.34
2019-03-19T20:06:50.876Z,6.38
2019-03-19T20:09:20.892Z,6.41
2019-03-19T20:11:54.315Z,6.43
2019-03-19T20:14:25.688Z,6.48
2019-03-19T20:16:56.940Z,6.53
2019-03-19T20:19:27.159Z,6.56
2019-03-19T20:22:04.378Z,6.57
2019-03-19T20:24:36.159Z,6.58
2019-03-19T20:27:08.907Z,6.59
2019-03-19T20:29:42.275Z,6.59
2019-03-19T20:32:11.968Z,6.62
2019-03-19T20:34:42.973Z,6.60
2019-03-19T20:37:54.531Z,6.59
2019-03-19T20:40:24.818Z,6.60
2019-03-19T20:42:57.360Z,6.56
2019-03-19T20:45:29.158Z,6.56
2019-03-19T20:47:58.806Z,6.58
2019-03-19T20:50:28.823Z,6.54
2019-03-19T20:52:58.207Z,6.56
2019-03-19T20:55:28.980Z,6.53
2019-03-19T20:57:58.566Z,6.55
2019-03-19T21:00:28.146Z,6.55
2019-03-19T21:02:57.946Z,6.54
2019-03-19T21:05:27.334Z,6.50
2019-03-19T21:07:56.766Z,6.46
2019-03-19T21:10:26.886Z,6.42
2019-03-19T21:12:56.573Z,6.42
2019-03-19T21:15:26.250Z,6.36
2019-03-19T21:17:56.628Z,6.37
2019-03-19T21:20:26.197Z,6.36
2019-03-19T21:22:55.727Z,6.33
2019-03-19T21:25:25.766Z,6.30
2019-03-19T21:27:55.236Z,6.30
2019-03-19T21:30:24.803Z,6.28
2019-03-19T21:32:56.582Z,6.21
2019-03-19T21:35:26.670Z,6.20
2019-03-19T21:37:57.817Z,6.17
2019-03-19T21:40:29.367Z,6.13
2019-03-19T21:42:58.818Z,6.07
2019-03-19T21:45:31.046Z,6.01
2019-03-19T21:48:28.870Z,5.94
2019-03-19T21:51:00.274Z,5.83
2019-03-19T21:53:31.435Z,5.74
2019-03-19T21:56:03.746Z,5.64
2019-03-19T21:58:34.714Z,5.50
2019-03-19T22:01:07.224Z,5.39
2019-03-19T22:03:37.577Z,5.27
2019-03-19T22:06:07.992Z,5.17
2019-03-19T22:08:40.642Z,5.10
2019-03-19T22:11:10.866Z,5.03
2019-03-19T22:13:40.919Z,4.91
2019-03-19T22:16:12.561Z,4.81
2019-03-19T22:18:44.540Z,4.73
2019-03-19T22:21:19.211Z,4.66
2019-03-19T22:23:51.223Z,4.60
2019-03-19T22:26:21.342Z,4.55
2019-03-19T22:28:51.896Z,4.48
2019-03-19T22:31:23.099Z,4.39
2019-03-19T22:33:59.223Z,4.34
2019-03-19T22:36:29.853Z,4.27
2019-03-19T22:39:00.052Z,4.23
2019-03-19T22:41:30.475Z,4.17
2019-03-19T22:44:01.190Z,4.16
2019-03-19T22:46:31.540Z,4.11
2019-03-19T22:49:03.247Z,4.09
2019-03-19T22:51:33.421Z,4.10
2019-03-19T22:54:04.231Z,4.03
2019-03-19T22:56:34.641Z,3.98
2019-03-19T22:59:08.062Z,3.98
2019-03-19T23:01:39.931Z,3.94
2019-03-19T23:04:12.745Z,3.91
2019-03-19T23:06:43.463Z,3.91
2019-03-19T23:09:13.802Z,3.85
2019-03-19T23:11:45.467Z,3.85
2019-03-19T23:14:15.838Z,3.82
2019-03-19T23:16:46.790Z,3.78
2019-03-19T23:19:17.247Z,3.78
2019-03-19T23:21:47.689Z,3.76
2019-03-19T23:24:18.477Z,3.69
2019-03-19T23:26:50.515Z,3.60
2019-03-19T23:29:24.738Z,3.53
2019-03-19T23:31:57.772Z,3.46
2019-03-19T23:34:37.907Z,3.38
2019-03-19T23:37:00.028Z,3.41
2019-03-19T23:39:30.305Z,3.42
2019-03-19T23:42:01.912Z,3.41
2019-03-19T23:44:32.983Z,3.44
2019-03-19T23:47:03.279Z,3.46
2019-03-19T23:49:35.117Z,3.48
2019-03-19T23:52:05.562Z,3.53
2019-03-19T23:54:35.676Z,3.56
2019-03-19T23:57:06.025Z,3.69
2019-03-19T23:59:36.541Z,3.78
